Time;durP1;ratioP1;P1;durP2;ratioP2;P2;SDS_P1;SDS_P2;PMS_P1;PMS_P2;Temp;Humidity;BMP_temperature;BMP_pressure;BME280_temperature;BME280_humidity;BME280_pressure;Samples;Min_cycle;Max_cycle;Signal;HPM_P1;HPM_P2
2023/11/01 00:00:22;;;;;;;0.47;0.47;;;10.50;99.90;10.40;99705.00;;;;4912144;28;87254;-69
2023/11/01 00:02:48;;;;;;;0.90;0.53;;;10.50;99.90;10.30;99717.00;;;;4911208;28;115270;-69
2023/11/01 00:05:13;;;;;;;0.40;0.40;;;10.40;99.90;10.30;99721.00;;;;4914807;28;110418;-67
2023/11/01 00:07:39;;;;;;;0.57;0.57;;;10.40;99.90;10.20;99710.00;;;;4912963;28;108918;-67
2023/11/01 00:10:06;;;;;;;0.30;0.30;;;10.30;99.90;10.10;99715.00;;;;4884083;28;116606;-67
2023/11/01 00:12:32;;;;;;;0.63;0.50;;;10.30;99.90;10.10;99710.00;;;;4908940;28;88531;-67
2023/11/01 00:14:58;;;;;;;0.73;0.60;;;10.20;99.90;10.00;99711.00;;;;4910622;28;109682;-67
2023/11/01 00:17:24;;;;;;;1.80;0.83;;;10.10;99.90;9.90;99712.00;;;;4914965;28;87576;-67
2023/11/01 00:19:50;;;;;;;1.33;0.80;;;10.10;99.90;9.90;99714.00;;;;4914764;28;88733;-66
2023/11/01 00:22:17;;;;;;;0.70;0.67;;;10.00;99.90;9.80;99709.00;;;;4913068;28;110691;-67
2023/11/01 00:24:43;;;;;;;0.50;0.50;;;9.90;99.90;9.80;99717.00;;;;4891912;28;91974;-66
2023/11/01 00:27:09;;;;;;;0.43;0.33;;;9.90;99.90;9.70;99711.00;;;;4912248;28;107921;-66
2023/11/01 00:29:34;;;;;;;1.07;0.70;;;9.80;99.90;9.60;99713.00;;;;4914538;28;88311;-67
2023/11/01 00:32:00;;;;;;;1.67;0.83;;;9.80;99.90;9.60;99717.00;;;;4912875;28;117278;-66
2023/11/01 00:34:26;;;;;;;1.17;0.50;;;10.60;99.90;9.50;99713.00;;;;4915220;28;111134;-67
2023/11/01 00:36:51;;;;;;;0.60;0.60;;;9.70;99.90;9.50;99706.00;;;;4912078;28;107626;-66
2023/11/01 00:39:17;;;;;;;0.87;0.87;;;9.60;99.90;9.40;99702.00;;;;4914003;28;117652;-66
2023/11/01 00:41:43;;;;;;;1.23;0.57;;;9.60;99.90;9.30;99708.00;;;;4915453;28;116162;-67
2023/11/01 00:44:08;;;;;;;0.30;0.30;;;9.50;99.90;9.30;99718.00;;;;4914465;28;109662;-66
2023/11/01 00:46:34;;;;;;;1.00;0.70;;;9.40;99.90;9.20;99701.00;;;;4902433;28;108353;-66
2023/11/01 00:49:00;;;;;;;0.57;0.50;;;9.30;99.90;9.20;99718.00;;;;4896158;28;89098;-66
2023/11/01 00:51:26;;;;;;;1.17;0.43;;;9.30;99.90;9.20;99715.00;;;;4915651;28;87901;-66
2023/11/01 00:53:52;;;;;;;1.07;0.60;;;9.30;99.90;9.10;99714.00;;;;4914342;28;109342;-66
2023/11/01 00:56:18;;;;;;;1.50;0.67;;;9.30;99.90;9.10;99714.00;;;;4913935;28;88894;-68
2023/11/01 00:58:43;;;;;;;2.33;0.57;;;9.20;99.90;9.10;99708.00;;;;4913998;28;88146;-66
2023/11/01 01:01:09;;;;;;;0.77;0.77;;;9.20;99.90;9.10;99711.00;;;;4911081;28;87793;-66
2023/11/01 01:03:35;;;;;;;1.67;1.00;;;9.30;99.90;9.20;99717.00;;;;4900585;28;110314;-66
2023/11/01 01:06:01;;;;;;;0.67;0.67;;;9.20;99.90;9.20;99718.00;;;;4911654;28;87605;-66
2023/11/01 01:08:27;;;;;;;0.87;0.70;;;9.30;99.90;9.20;99720.00;;;;4896034;28;89680;-67
2023/11/01 01:10:52;;;;;;;1.60;1.00;;;9.30;99.90;9.30;99721.00;;;;4915316;28;112818;-66
2023/11/01 01:13:18;;;;;;;0.50;0.50;;;9.30;99.90;9.30;99720.00;;;;4911647;28;100220;-66
2023/11/01 01:15:44;;;;;;;0.77;0.73;;;9.40;99.90;9.40;99725.00;;;;4913988;28;87555;-66
2023/11/01 01:18:09;;;;;;;0.57;0.57;;;9.40;99.90;9.40;99723.00;;;;4917797;28;101136;-66
2023/11/01 01:20:36;;;;;;;0.70;0.70;;;9.50;99.90;9.50;99720.00;;;;4912965;28;117803;-66
2023/11/01 01:23:01;;;;;;;0.60;0.60;;;9.50;99.90;9.50;99732.00;;;;4913723;28;87971;-66
2023/11/01 01:25:27;;;;;;;0.43;0.43;;;9.60;99.90;9.60;99736.00;;;;4912684;28;107404;-67
2023/11/01 01:27:52;;;;;;;1.70;0.87;;;9.60;99.90;9.70;99730.00;;;;4914239;28;117594;-66
2023/11/01 01:30:18;;;;;;;1.67;0.70;;;9.70;99.90;9.70;99742.00;;;;4911952;28;118168;-67
2023/11/01 01:32:44;;;;;;;0.60;0.60;;;10.60;99.90;9.70;99747.00;;;;4913765;28;88140;-66
2023/11/01 01:35:12;;;;;;;2.13;0.97;;;9.80;99.90;9.80;99744.00;;;;4912362;28;87644;-67
2023/11/01 01:37:38;;;;;;;0.47;0.40;;;9.90;99.90;9.80;99745.00;;;;4916006;28;87648;-68
2023/11/01 01:40:05;;;;;;;0.60;0.40;;;9.90;99.90;9.80;99742.00;;;;4912211;28;115948;-68
2023/11/01 01:42:30;;;;;;;0.57;0.57;;;9.90;99.90;9.80;99736.00;;;;4913741;28;87695;-68
2023/11/01 01:44:56;;;;;;;0.30;0.30;;;9.90;99.90;9.90;99735.00;;;;4909451;28;101483;-67
2023/11/01 01:47:22;;;;;;;2.40;0.60;;;9.90;99.90;9.80;99726.00;;;;4913370;28;88081;-68
2023/11/01 01:49:49;;;;;;;4.40;0.80;;;9.90;99.90;9.80;99720.00;;;;4892649;28;87762;-68
2023/11/01 01:52:15;;;;;;;0.87;0.77;;;9.90;99.90;9.80;99724.00;;;;4896850;28;88296;-70
2023/11/01 01:54:41;;;;;;;0.73;0.73;;;9.90;99.90;9.80;99720.00;;;;4911028;28;108576;-71
2023/11/01 01:57:06;;;;;;;0.60;0.60;;;9.90;99.90;9.80;99701.00;;;;4912238;28;116342;-70
2023/11/01 01:59:32;;;;;;;0.77;0.67;;;9.80;99.90;9.80;99711.00;;;;4909922;28;88712;-70
2023/11/01 02:01:59;;;;;;;5.70;0.60;;;9.80;99.90;9.70;99702.00;;;;4911004;28;101554;-70
2023/11/01 02:04:26;;;;;;;0.77;0.77;;;9.80;99.90;9.80;99705.00;;;;4893250;28;87911;-70
2023/11/01 02:06:52;;;;;;;2.47;1.23;;;9.80;99.90;9.70;99714.00;;;;4908648;28;87892;-70
2023/11/01 02:09:17;;;;;;;1.13;1.03;;;9.80;99.90;9.70;99707.00;;;;4892846;28;116839;-69
2023/11/01 02:11:44;;;;;;;4.00;1.33;;;9.80;99.90;9.70;99710.00;;;;4910772;28;108351;-68
2023/11/01 02:14:11;;;;;;;2.97;1.20;;;9.80;99.90;9.80;99704.00;;;;4891139;28;88331;-67
2023/11/01 02:16:38;;;;;;;0.87;0.70;;;9.80;99.90;9.70;99692.00;;;;4911316;28;106530;-69
2023/11/01 02:19:07;;;;;;;1.07;0.70;;;9.80;99.90;9.80;99703.00;;;;4901399;28;88033;-68
2023/11/01 02:21:32;;;;;;;1.67;1.10;;;9.80;99.90;9.80;99702.00;;;;4892869;28;87912;-68
2023/11/01 02:23:58;;;;;;;1.87;0.70;;;9.80;99.90;9.80;99695.00;;;;4914735;28;110254;-67
2023/11/01 02:26:25;;;;;;;1.70;1.53;;;9.80;99.90;9.80;99703.00;;;;4916233;28;116576;-67
2023/11/01 02:28:51;;;;;;;1.07;0.97;;;9.80;99.90;9.80;99696.00;;;;4912132;28;87855;-68
2023/11/01 02:31:17;;;;;;;0.73;0.73;;;9.90;99.90;9.80;99695.00;;;;4893488;28;97270;-68
2023/11/01 02:33:42;;;;;;;0.80;0.80;;;9.90;99.90;9.80;99696.00;;;;4905805;28;109555;-68
2023/11/01 02:36:08;;;;;;;0.87;0.57;;;9.90;99.90;9.90;99699.00;;;;4904141;28;117557;-68
2023/11/01 02:38:34;;;;;;;1.27;0.93;;;9.90;99.90;9.90;99700.00;;;;4911401;28;92936;-68
2023/11/01 02:41:00;;;;;;;1.17;0.87;;;9.90;99.90;9.90;99688.00;;;;4893591;28;87449;-68
2023/11/01 02:43:25;;;;;;;1.53;0.63;;;9.90;99.90;9.90;99695.00;;;;4909155;28;108306;-68
2023/11/01 02:45:53;;;;;;;0.80;0.80;;;9.90;99.90;9.90;99697.00;;;;4888029;28;117172;-69
2023/11/01 02:48:18;;;;;;;0.97;0.83;;;10.00;99.90;9.90;99693.00;;;;4907672;28;87811;-68
2023/11/01 02:50:44;;;;;;;1.80;1.13;;;10.00;99.90;9.90;99713.00;;;;4913577;28;101207;-68
2023/11/01 02:53:10;;;;;;;1.40;1.00;;;10.00;99.90;10.00;99696.00;;;;4914030;28;88028;-68
2023/11/01 02:55:36;;;;;;;5.13;1.30;;;10.00;99.90;10.00;99705.00;;;;4915890;28;109838;-67
2023/11/01 02:58:02;;;;;;;0.93;0.73;;;10.00;99.90;10.00;99699.00;;;;4911272;28;88648;-68
2023/11/01 03:00:28;;;;;;;1.90;0.93;;;10.50;99.90;10.00;99706.00;;;;4889952;28;87973;-68
2023/11/01 03:02:56;;;;;;;1.00;1.00;;;10.10;99.90;10.10;99705.00;;;;4911812;28;102360;-67
2023/11/01 03:05:24;;;;;;;0.87;0.87;;;10.10;99.90;10.10;99701.00;;;;4907646;28;88761;-67
2023/11/01 03:07:50;;;;;;;0.97;0.70;;;10.10;99.90;10.10;99703.00;;;;4899724;28;88218;-67
2023/11/01 03:10:15;;;;;;;1.63;1.00;;;10.20;99.90;10.10;99708.00;;;;4907576;28;111532;-67
2023/11/01 03:12:42;;;;;;;1.47;0.90;;;10.20;99.90;10.10;99709.00;;;;4912211;28;87885;-68
2023/11/01 03:15:09;;;;;;;1.13;0.77;;;10.20;99.90;10.10;99703.00;;;;4907860;28;94480;-68
2023/11/01 03:17:38;;;;;;;3.17;1.40;;;10.20;99.90;10.10;99708.00;;;;4909089;28;88027;-67
2023/11/01 03:20:07;;;;;;;4.57;1.00;;;10.10;99.90;10.10;99706.00;;;;4906152;28;87986;-67
2023/11/01 03:22:33;;;;;;;0.87;0.40;;;10.20;99.90;10.10;99704.00;;;;4909856;28;88745;-67
2023/11/01 03:25:00;;;;;;;0.60;0.60;;;10.20;99.90;10.10;99705.00;;;;4890775;28;87738;-68
2023/11/01 03:27:25;;;;;;;0.97;0.70;;;10.10;99.90;10.10;99702.00;;;;4905865;28;87867;-69
2023/11/01 03:29:56;;;;;;;1.00;0.80;;;10.20;99.90;10.10;99710.00;;;;4910112;28;87828;-68
2023/11/01 03:32:24;;;;;;;0.70;0.67;;;10.20;99.90;10.20;99713.00;;;;4912712;28;87769;-67
2023/11/01 03:34:54;;;;;;;3.67;1.03;;;10.20;99.90;10.20;99719.00;;;;4896783;28;90267;-67
2023/11/01 03:37:20;;;;;;;1.00;1.00;;;10.30;99.90;10.30;99724.00;;;;4891006;28;87650;-67
2023/11/01 03:39:46;;;;;;;1.20;0.87;;;10.30;99.90;10.30;99719.00;;;;4914298;28;101207;-69
2023/11/01 03:42:12;;;;;;;0.87;0.67;;;10.30;99.90;10.30;99713.00;;;;4907523;28;107964;-67
2023/11/01 03:44:37;;;;;;;0.40;0.40;;;10.40;99.90;10.30;99718.00;;;;4911468;28;88647;-67
2023/11/01 03:47:03;;;;;;;2.00;0.87;;;10.40;99.90;10.30;99714.00;;;;4895559;28;120065;-68
2023/11/01 03:49:30;;;;;;;1.33;0.83;;;10.40;99.90;10.30;99716.00;;;;4911772;28;93619;-67
2023/11/01 03:52:05;;;;;;;0.70;0.70;;;10.30;99.90;10.20;99719.00;;;;4891281;28;87577;-67
2023/11/01 03:54:33;;;;;;;0.87;0.60;;;10.30;99.90;10.10;99716.00;;;;4893687;28;87973;-69
2023/11/01 03:57:00;;;;;;;1.57;0.63;;;10.20;99.90;10.00;99725.00;;;;4909666;28;89228;-68
2023/11/01 03:59:25;;;;;;;0.87;0.70;;;10.20;99.90;10.00;99720.00;;;;4910861;28;87567;-69
2023/11/01 04:01:52;;;;;;;0.83;0.50;;;10.10;99.90;9.90;99721.00;;;;4906223;28;108430;-68
2023/11/01 04:04:17;;;;;;;1.23;0.90;;;10.60;99.90;9.80;99713.00;;;;4912097;28;88342;-68
2023/11/01 04:06:43;;;;;;;0.63;0.63;;;9.90;99.90;9.80;99730.00;;;;4909527;28;116662;-68
2023/11/01 04:09:10;;;;;;;0.80;0.80;;;9.80;99.90;9.70;99725.00;;;;4912284;28;110962;-68
2023/11/01 04:11:36;;;;;;;1.33;0.70;;;9.80;99.90;9.70;99720.00;;;;4910084;28;88720;-68
2023/11/01 04:14:03;;;;;;;2.47;1.13;;;9.80;99.90;9.70;99714.00;;;;4912847;28;87528;-69
2023/11/01 04:16:29;;;;;;;0.93;0.93;;;9.80;99.90;9.70;99713.00;;;;4911701;28;87726;-68
2023/11/01 04:18:56;;;;;;;0.90;0.87;;;9.80;99.90;9.70;99726.00;;;;4915784;28;87893;-67
2023/11/01 04:21:23;;;;;;;0.73;0.73;;;9.70;99.90;9.70;99718.00;;;;4907106;28;87537;-67
2023/11/01 04:23:51;;;;;;;0.53;0.53;;;9.80;99.90;9.70;99724.00;;;;4908401;28;101849;-67
2023/11/01 04:26:18;;;;;;;0.60;0.60;;;9.80;99.90;9.80;99722.00;;;;4910465;28;89068;-67
2023/11/01 04:28:44;;;;;;;0.63;0.50;;;9.80;99.90;9.80;99712.00;;;;4913776;28;87153;-67
2023/11/01 04:31:10;;;;;;;1.03;0.57;;;9.80;99.90;9.80;99723.00;;;;4908496;28;109052;-67
2023/11/01 04:33:37;;;;;;;0.63;0.50;;;9.90;99.90;9.80;99721.00;;;;4911274;28;89014;-68
2023/11/01 04:36:08;;;;;;;1.23;0.93;;;9.90;99.90;9.80;99716.00;;;;4907139;28;88866;-67
2023/11/01 04:38:36;;;;;;;2.20;1.10;;;9.90;99.90;9.80;99726.00;;;;4905830;28;87554;-67
2023/11/01 04:41:03;;;;;;;0.87;0.70;;;9.90;99.90;9.80;99714.00;;;;4910902;28;87772;-67
2023/11/01 04:43:29;;;;;;;1.27;0.70;;;9.90;99.90;9.80;99720.00;;;;4913528;28;87843;-67
2023/11/01 04:45:55;;;;;;;1.47;0.80;;;9.90;99.90;9.70;99718.00;;;;4910979;28;87750;-67
2023/11/01 04:48:21;;;;;;;0.97;0.90;;;9.80;99.90;9.70;99706.00;;;;4915090;28;87867;-67
2023/11/01 04:50:48;;;;;;;1.77;0.70;;;9.80;99.90;9.60;99701.00;;;;4899572;28;87431;-66
2023/11/01 04:53:15;;;;;;;0.70;0.67;;;9.70;99.90;9.50;99712.00;;;;4911398;28;88192;-67
2023/11/01 04:55:40;;;;;;;1.07;0.70;;;9.60;99.90;9.30;99711.00;;;;4915890;28;87712;-66
2023/11/01 04:58:06;;;;;;;0.70;0.50;;;9.50;99.90;9.20;99708.00;;;;4911985;28;87521;-66
2023/11/01 05:00:32;;;;;;;0.53;0.53;;;9.40;99.90;9.20;99718.00;;;;4909428;28;107723;-66
2023/11/01 05:02:58;;;;;;;0.60;0.60;;;9.30;99.90;9.10;99717.00;;;;4911114;28;117253;-66
2023/11/01 05:05:23;;;;;;;1.97;0.90;;;9.20;99.90;9.10;99715.00;;;;4916481;28;88518;-66
2023/11/01 05:07:49;;;;;;;0.60;0.60;;;9.20;99.90;9.10;99721.00;;;;4917956;28;88067;-67
2023/11/01 05:10:15;;;;;;;0.77;0.70;;;9.20;99.90;9.00;99719.00;;;;4885538;28;107664;-68
2023/11/01 05:12:41;;;;;;;0.90;0.90;;;9.20;99.90;9.10;99710.00;;;;4902384;28;88224;-68
2023/11/01 05:15:08;;;;;;;0.90;0.90;;;9.20;99.90;9.10;99718.00;;;;4911311;28;118774;-68
2023/11/01 05:17:34;;;;;;;0.77;0.77;;;9.20;99.90;9.10;99715.00;;;;4915147;28;87138;-67
2023/11/01 05:20:03;;;;;;;0.60;0.60;;;9.20;99.90;9.10;99709.00;;;;4912741;28;87663;-66
2023/11/01 05:22:29;;;;;;;1.57;0.63;;;9.30;99.90;9.20;99708.00;;;;4913486;28;89423;-67
2023/11/01 05:24:56;;;;;;;1.47;0.90;;;9.30;99.90;9.20;99712.00;;;;4893947;28;89879;-67
2023/11/01 05:27:21;;;;;;;1.07;0.80;;;9.30;99.90;9.30;99716.00;;;;4895120;28;87897;-66
2023/11/01 05:29:47;;;;;;;0.90;0.87;;;9.40;99.90;9.30;99709.00;;;;4912481;28;107824;-67
2023/11/01 05:32:13;;;;;;;2.13;1.03;;;9.40;99.90;9.40;99713.00;;;;4908951;28;107562;-66
2023/11/01 05:34:39;;;;;;;1.13;0.73;;;9.40;99.90;9.40;99711.00;;;;4912599;28;116344;-66
2023/11/01 05:37:09;;;;;;;0.80;0.77;;;9.50;99.90;9.50;99716.00;;;;4910426;28;87960;-69
2023/11/01 05:39:35;;;;;;;0.70;0.70;;;9.50;99.90;9.50;99711.00;;;;4915750;28;87601;-67
2023/11/01 05:42:00;;;;;;;1.03;0.93;;;9.60;99.90;9.50;99710.00;;;;4909339;28;117046;-67
2023/11/01 05:44:26;;;;;;;1.03;0.90;;;9.60;99.90;9.50;99709.00;;;;4913737;28;88008;-67
2023/11/01 05:46:52;;;;;;;1.50;1.40;;;9.60;99.90;9.50;99718.00;;;;4910485;28;110744;-67
2023/11/01 05:49:20;;;;;;;0.97;0.80;;;9.50;99.90;9.50;99720.00;;;;4901065;28;89369;-67
2023/11/01 05:51:46;;;;;;;1.70;0.80;;;9.50;99.90;9.50;99725.00;;;;4912507;28;88872;-67
2023/11/01 05:54:11;;;;;;;1.20;0.83;;;9.60;99.90;9.40;99728.00;;;;4878937;28;106317;-66
2023/11/01 05:56:37;;;;;;;1.53;1.17;;;9.50;99.90;9.40;99720.00;;;;4896258;28;87770;-67
2023/11/01 05:59:03;;;;;;;0.47;0.47;;;9.50;99.90;9.40;99722.00;;;;4911668;28;109637;-67
2023/11/01 06:01:29;;;;;;;6.40;1.13;;;9.50;99.90;9.40;99730.00;;;;4910433;28;87589;-67
2023/11/01 06:03:56;;;;;;;1.60;1.20;;;9.50;99.90;9.50;99727.00;;;;4911683;28;115784;-67
2023/11/01 06:06:26;;;;;;;2.60;1.30;;;9.50;99.90;9.50;99720.00;;;;4897112;28;86784;-67
2023/11/01 06:08:52;;;;;;;0.97;0.87;;;9.60;99.90;9.60;99736.00;;;;4912112;28;87431;-67
2023/11/01 06:11:19;;;;;;;2.23;0.80;;;9.60;99.90;9.60;99725.00;;;;4912982;28;87735;-68
2023/11/01 06:13:45;;;;;;;1.40;1.03;;;9.60;99.90;9.60;99743.00;;;;4894668;28;88869;-67
2023/11/01 06:16:10;;;;;;;1.37;1.23;;;9.60;99.90;9.60;99735.00;;;;4909243;28;100694;-66
2023/11/01 06:18:37;;;;;;;0.80;0.70;;;9.70;99.90;9.60;99733.00;;;;4907974;28;105242;-67
2023/11/01 06:21:05;;;;;;;2.50;1.67;;;9.70;99.90;9.60;99733.00;;;;4895006;28;88388;-66
2023/11/01 06:23:31;;;;;;;3.20;1.20;;;9.70;99.90;9.60;99733.00;;;;4909536;28;89093;-66
2023/11/01 06:25:58;;;;;;;0.83;0.83;;;9.60;99.90;9.50;99729.00;;;;4913626;28;87797;-67
2023/11/01 06:28:24;;;;;;;1.20;0.90;;;9.60;99.90;9.50;99738.00;;;;4892705;28;87919;-67
2023/11/01 06:30:49;;;;;;;2.07;0.83;;;9.50;99.90;9.50;99737.00;;;;4906175;28;88034;-68
2023/11/01 06:33:15;;;;;;;4.90;0.70;;;9.60;99.90;9.50;99743.00;;;;4909421;28;116319;-68
2023/11/01 06:35:41;;;;;;;0.90;0.90;;;9.50;99.90;9.50;99741.00;;;;4900877;28;109575;-68
2023/11/01 06:38:07;;;;;;;1.53;0.80;;;9.50;99.90;9.50;99738.00;;;;4890586;28;106673;-67
2023/11/01 06:40:32;;;;;;;1.23;1.00;;;9.60;99.90;9.50;99741.00;;;;4890143;28;117084;-67
2023/11/01 06:42:58;;;;;;;1.80;1.00;;;9.60;99.90;9.50;99740.00;;;;4904032;28;115810;-67
2023/11/01 06:45:24;;;;;;;1.03;0.93;;;10.90;99.90;9.50;99737.00;;;;4906472;28;110536;-68
2023/11/01 06:47:49;;;;;;;1.60;0.80;;;9.60;99.90;9.60;99739.00;;;;4873328;28;102269;-67
2023/11/01 06:50:15;;;;;;;1.03;0.97;;;9.60;99.90;9.60;99743.00;;;;4903104;28;117586;-67
2023/11/01 06:52:45;;;;;;;4.53;1.00;;;9.60;99.90;9.70;99739.00;;;;4908637;28;117574;-66
2023/11/01 06:55:12;;;;;;;2.03;1.00;;;9.70;99.90;9.80;99736.00;;;;4893760;28;86826;-66
2023/11/01 06:57:38;;;;;;;2.03;1.07;;;9.80;99.90;9.90;99739.00;;;;4885302;28;90031;-67
2023/11/01 07:00:06;;;;;;;1.43;1.00;;;9.90;99.90;10.00;99733.00;;;;4905125;28;87944;-67
2023/11/01 07:02:34;;;;;;;1.47;0.97;;;10.00;99.90;10.10;99733.00;;;;4893128;28;89924;-67
2023/11/01 07:04:59;;;;;;;1.57;0.73;;;10.10;99.90;10.40;99741.00;;;;4907481;28;87785;-67
2023/11/01 07:07:25;;;;;;;0.50;0.50;;;10.70;99.90;10.70;99738.00;;;;4903719;28;101892;-67
2023/11/01 07:09:51;;;;;;;3.10;0.50;;;10.60;99.90;10.90;99735.00;;;;4907942;28;88078;-68
2023/11/01 07:12:16;;;;;;;0.67;0.67;;;10.80;99.90;11.00;99741.00;;;;4873637;28;94277;-68
2023/11/01 07:14:42;;;;;;;1.10;0.90;;;11.00;99.90;11.10;99736.00;;;;4908496;28;87789;-68
2023/11/01 07:17:08;;;;;;;1.37;0.90;;;11.10;99.90;11.30;99736.00;;;;4905788;28;87661;-69
2023/11/01 07:19:33;;;;;;;1.03;0.70;;;11.30;99.90;11.40;99743.00;;;;4905425;28;116281;-68
2023/11/01 07:21:59;;;;;;;1.03;0.50;;;11.30;99.90;11.40;99747.00;;;;4905746;28;87933;-68
2023/11/01 07:24:28;;;;;;;0.80;0.70;;;11.50;99.90;11.40;99744.00;;;;4888950;28;109330;-68
2023/11/01 07:26:53;;;;;;;1.00;0.90;;;11.50;99.90;11.50;99737.00;;;;4901068;28;93223;-68
2023/11/01 07:29:19;;;;;;;2.20;1.07;;;11.50;99.90;11.50;99746.00;;;;4889966;28;114033;-68
2023/11/01 07:31:45;;;;;;;0.60;0.60;;;11.60;99.90;11.50;99744.00;;;;4900450;28;115802;-68
2023/11/01 07:34:10;;;;;;;0.73;0.73;;;11.50;99.90;11.50;99732.00;;;;4908861;28;87760;-68
2023/11/01 07:36:36;;;;;;;3.37;1.77;;;11.50;99.90;11.50;99737.00;;;;4907361;28;108512;-68
2023/11/01 07:39:02;;;;;;;1.57;1.07;;;11.50;99.90;11.50;99742.00;;;;4907836;28;118187;-68
2023/11/01 07:41:27;;;;;;;0.93;0.90;;;11.60;99.90;11.60;99747.00;;;;4908911;28;90072;-68
2023/11/01 07:43:53;;;;;;;0.60;0.60;;;11.60;99.90;11.70;99748.00;;;;4905058;28;110521;-66
2023/11/01 07:46:19;;;;;;;0.87;0.63;;;11.70;99.90;11.80;99739.00;;;;4909617;28;87893;-68
2023/11/01 07:48:44;;;;;;;2.40;1.03;;;11.80;99.90;11.90;99740.00;;;;4892142;28;116719;-67
2023/11/01 07:51:16;;;;;;;1.07;0.80;;;11.80;99.90;12.00;99732.00;;;;4900354;28;89040;-67
2023/11/01 07:53:42;;;;;;;0.70;0.70;;;12.00;99.90;12.10;99744.00;;;;4901991;28;107950;-66
2023/11/01 07:56:07;;;;;;;1.17;0.60;;;12.10;99.90;12.30;99739.00;;;;4905312;28;88078;-67
2023/11/01 07:58:33;;;;;;;0.73;0.73;;;12.20;99.90;12.50;99735.00;;;;4909984;28;88646;-67
2023/11/01 08:00:59;;;;;;;0.40;0.40;;;12.40;99.90;12.70;99727.00;;;;4887662;28;88349;-67
2023/11/01 08:03:25;;;;;;;1.13;0.57;;;12.60;99.90;12.90;99728.00;;;;4889904;28;110258;-68
2023/11/01 08:05:50;;;;;;;0.40;0.40;;;12.80;99.90;13.00;99733.00;;;;4887658;28;109727;-67
2023/11/01 08:08:16;;;;;;;0.67;0.43;;;12.90;99.90;13.00;99725.00;;;;4911903;28;113371;-67
2023/11/01 08:10:42;;;;;;;0.40;0.40;;;13.00;99.90;13.20;99731.00;;;;4907928;28;88060;-67
2023/11/01 08:13:08;;;;;;;1.20;0.57;;;13.10;99.90;13.60;99735.00;;;;4897146;28;100937;-66
2023/11/01 08:15:34;;;;;;;0.60;0.60;;;13.40;99.90;13.80;99744.00;;;;4911148;28;88680;-67
2023/11/01 08:18:02;;;;;;;1.97;0.70;;;13.70;99.90;14.10;99735.00;;;;4908902;28;116627;-66
2023/11/01 08:20:30;;;;;;;0.73;0.47;;;14.00;99.90;14.40;99734.00;;;;4911589;28;88313;-67
2023/11/01 08:22:56;;;;;;;0.30;0.30;;;14.50;99.90;14.70;99731.00;;;;4892228;28;88172;-67
2023/11/01 08:25:23;;;;;;;1.75;0.43;;;14.60;99.90;15.00;99740.00;;;;4909718;28;87939;-67
2023/11/01 08:27:49;;;;;;;0.40;0.40;;;14.80;99.90;15.20;99736.00;;;;4907838;28;87899;-67
2023/11/01 08:30:16;;;;;;;2.92;0.85;;;15.10;99.90;15.50;99733.00;;;;4908185;28;89843;-67
2023/11/01 08:32:41;;;;;;;1.60;0.50;;;15.40;99.90;15.70;99736.00;;;;4909767;28;87143;-66
2023/11/01 08:35:08;;;;;;;3.60;0.65;;;15.60;99.90;15.90;99735.00;;;;4907587;28;109073;-67
2023/11/01 08:37:35;;;;;;;0.40;0.40;;;15.80;99.90;16.00;99728.00;;;;4909073;28;88101;-67
2023/11/01 08:40:01;;;;;;;0.25;0.25;;;16.00;99.90;16.20;99726.00;;;;4907686;28;106045;-68
2023/11/01 08:42:26;;;;;;;0.70;0.50;;;16.10;99.90;16.40;99729.00;;;;4909988;28;87721;-66
2023/11/01 08:44:52;;;;;;;0.98;0.60;;;16.30;99.90;16.70;99725.00;;;;4906624;28;87549;-68
2023/11/01 08:47:33;;;;;;;0.30;0.30;;;16.50;99.90;16.90;99730.00;;;;4907492;28;88907;-67
2023/11/01 08:50:00;;;;;;;0.90;0.70;;;16.70;99.90;17.00;99729.00;;;;4906997;28;87809;-66
2023/11/01 08:52:25;;;;;;;0.30;0.30;;;16.90;99.90;17.00;99728.00;;;;4877159;28;87801;-69
2023/11/01 08:54:51;;;;;;;10.73;0.90;;;17.00;99.90;17.10;99731.00;;;;4896365;28;87913;-70
2023/11/01 08:57:22;;;;;;;0.93;0.70;;;17.00;99.90;17.10;99738.00;;;;4905755;28;87428;-67
2023/11/01 08:59:52;;;;;;;0.40;0.40;;;17.10;99.90;17.30;99724.00;;;;4909053;28;89650;-67
2023/11/01 09:02:18;;;;;;;0.52;0.32;;;17.20;99.90;17.30;99729.00;;;;4904448;28;87605;-68
2023/11/01 09:04:44;;;;;;;0.50;0.50;;;17.20;99.90;17.40;99724.00;;;;4909210;28;88359;-68
2023/11/01 09:07:10;;;;;;;5.30;0.43;;;18.40;99.90;17.40;99735.00;;;;4890180;28;88167;-67
2023/11/01 09:09:36;;;;;;;0.52;0.30;;;17.40;99.40;17.40;99732.00;;;;4906312;28;110570;-67
2023/11/01 09:12:02;;;;;;;0.30;0.30;;;17.40;99.30;17.50;99731.00;;;;4911268;28;87546;-68
2023/11/01 09:14:28;;;;;;;0.63;0.25;;;17.50;98.90;17.40;99728.00;;;;4887549;28;88557;-67
2023/11/01 09:16:54;;;;;;;0.52;0.38;;;17.40;98.80;17.20;99736.00;;;;4904257;28;116728;-68
2023/11/01 09:19:19;;;;;;;0.95;0.38;;;18.20;99.30;17.00;99736.00;;;;4891927;28;116576;-67
2023/11/01 09:21:45;;;;;;;0.10;0.10;;;17.70;99.50;16.90;99733.00;;;;4890383;28;108985;-67
2023/11/01 09:24:11;;;;;;;2.20;0.70;;;16.90;99.60;16.80;99720.00;;;;4895166;28;88309;-67
2023/11/01 09:26:37;;;;;;;1.60;0.30;;;16.80;98.80;16.60;99724.00;;;;4909958;28;117380;-67
2023/11/01 09:29:02;;;;;;;0.40;0.30;;;17.00;99.40;16.40;99730.00;;;;4889410;28;118083;-67
2023/11/01 09:31:28;;;;;;;2.17;0.52;;;16.50;99.60;16.30;99728.00;;;;4904891;28;110436;-67
2023/11/01 09:33:54;;;;;;;0.20;0.20;;;16.30;99.60;16.20;99721.00;;;;4890564;28;108438;-68
2023/11/01 09:36:19;;;;;;;1.35;0.40;;;16.10;99.70;16.00;99724.00;;;;4904956;28;112994;-67
2023/11/01 09:38:45;;;;;;;1.17;0.30;;;16.00;99.60;15.90;99724.00;;;;4896527;28;98758;-68
2023/11/01 09:41:17;;;;;;;0.40;0.38;;;15.90;99.80;15.90;99714.00;;;;4908534;28;88324;-66
2023/11/01 09:43:45;;;;;;;3.40;0.35;;;15.90;99.90;16.00;99716.00;;;;4890822;28;88348;-67
2023/11/01 09:46:11;;;;;;;0.63;0.45;;;15.90;99.90;16.00;99719.00;;;;4890184;28;117029;-66
2023/11/01 09:48:37;;;;;;;2.42;0.35;;;15.90;99.90;16.10;99705.00;;;;4892108;28;114165;-68
2023/11/01 09:51:04;;;;;;;0.40;0.40;;;16.00;99.90;16.20;99714.00;;;;4896407;28;87810;-68
2023/11/01 09:53:31;;;;;;;1.17;0.60;;;16.10;99.90;16.20;99720.00;;;;4903904;28;98540;-66
2023/11/01 09:55:57;;;;;;;0.77;0.43;;;16.20;99.90;16.20;99713.00;;;;4894636;28;87759;-68
2023/11/01 09:58:24;;;;;;;2.22;0.40;;;15.90;99.90;16.30;99728.00;;;;4907013;28;116512;-67
2023/11/01 10:00:55;;;;;;;0.28;0.20;;;16.20;99.90;16.30;99723.00;;;;4909435;28;110160;-68
2023/11/01 10:03:22;;;;;;;0.35;0.35;;;16.20;99.90;16.40;99720.00;;;;4898278;28;87890;-66
2023/11/01 10:05:48;;;;;;;1.27;0.63;;;16.30;99.80;16.50;99720.00;;;;4904807;28;88582;-66
2023/11/01 10:08:13;;;;;;;0.20;0.20;;;16.40;99.90;16.90;99713.00;;;;4905625;28;117383;-68
2023/11/01 10:10:41;;;;;;;0.30;0.30;;;16.60;99.70;17.40;99709.00;;;;4908920;28;86887;-67
2023/11/01 10:13:09;;;;;;;0.52;0.30;;;17.00;99.60;17.60;99704.00;;;;4909754;28;87945;-68
2023/11/01 10:15:35;;;;;;;0.30;0.30;;;17.30;98.90;17.90;99699.00;;;;4907395;28;88681;-67
2023/11/01 10:18:00;;;;;;;0.82;0.47;;;17.60;98.30;18.10;99695.00;;;;4893748;28;112355;-66
2023/11/01 10:20:27;;;;;;;1.02;0.70;;;17.90;97.90;18.20;99690.00;;;;4908139;28;103883;-68
2023/11/01 10:22:55;;;;;;;0.73;0.32;;;18.10;97.30;18.20;99691.00;;;;4905101;28;105581;-67
2023/11/01 10:25:20;;;;;;;0.55;0.25;;;18.10;96.80;18.10;99689.00;;;;4892720;28;90447;-67
2023/11/01 10:27:49;;;;;;;0.35;0.35;;;18.00;95.00;18.10;99680.00;;;;4892755;28;87927;-66
2023/11/01 10:30:15;;;;;;;0.55;0.40;;;18.00;95.10;18.20;99684.00;;;;4905676;28;87612;-67
2023/11/01 10:32:57;;;;;;;0.57;0.40;;;18.10;95.60;18.50;99686.00;;;;4906658;28;87614;-66
2023/11/01 10:35:22;;;;;;;0.22;0.15;;;18.30;95.40;18.70;99682.00;;;;4906604;28;86859;-68
2023/11/01 10:37:57;;;;;;;0.95;0.30;;;18.50;94.50;19.10;99679.00;;;;4892887;28;88335;-66
2023/11/01 10:40:22;;;;;;;3.72;0.22;;;18.80;95.20;19.40;99674.00;;;;4890286;28;87714;-68
2023/11/01 10:42:53;;;;;;;2.45;0.40;;;19.10;94.50;19.80;99677.00;;;;4885976;28;108780;-67
2023/11/01 10:45:19;;;;;;;0.40;0.40;;;19.60;93.80;19.90;99673.00;;;;4887267;28;89925;-67
2023/11/01 10:47:47;;;;;;;0.43;0.20;;;19.70;93.20;19.70;99658.00;;;;4897099;28;116339;-66
2023/11/01 10:50:13;;;;;;;0.30;0.30;;;19.50;92.10;19.50;99664.00;;;;4903347;28;87639;-68
2023/11/01 10:52:42;;;;;;;0.10;0.10;;;19.30;91.20;19.10;99678.00;;;;4907174;28;87773;-67
2023/11/01 10:55:11;;;;;;;0.47;0.35;;;19.10;91.30;18.70;99673.00;;;;4880988;28;88285;-67